createdAt,value
2023-01-23T00:05:16.797Z,167.60
2023-01-23T00:11:22.204Z,179.40
2023-01-23T00:14:24.017Z,174.60
2023-01-23T00:20:27.849Z,158.00
2023-01-23T00:23:29.571Z,155.30
2023-01-23T00:29:33.918Z,147.50
2023-01-23T00:35:37.351Z,151.70
2023-01-23T00:41:41.179Z,165.90
2023-01-23T00:44:42.899Z,161.10
2023-01-23T00:47:44.439Z,153.20
2023-01-23T00:50:46.219Z,158.20
2023-01-23T00:56:49.533Z,148.90
2023-01-23T00:59:51.219Z,147.60
2023-01-23T01:02:52.920Z,158.10
2023-01-23T01:08:57.489Z,139.00
2023-01-23T01:11:59.116Z,171.90
2023-01-23T01:15:00.728Z,191.80
2023-01-23T01:18:02.856Z,154.20
2023-01-23T01:21:09.527Z,151.60
2023-01-23T01:24:11.277Z,143.10
2023-01-23T01:27:13.149Z,159.90
2023-01-23T01:33:17.339Z,190.80
2023-01-23T01:36:21.421Z,174.30
2023-01-23T01:39:23.091Z,140.20
2023-01-23T01:46:03.978Z,164.90
2023-01-23T01:49:19.364Z,186.90
2023-01-23T01:52:22.557Z,181.70
2023-01-23T01:55:24.138Z,156.30
2023-01-23T01:58:27.729Z,136.90
2023-01-23T02:01:29.789Z,143.60
2023-01-23T02:04:34.210Z,170.30
2023-01-23T02:07:49.928Z,215.00
2023-01-23T02:10:52.204Z,189.80
2023-01-23T02:13:53.854Z,171.70
2023-01-23T02:16:55.540Z,154.60
2023-01-23T02:19:59.871Z,136.30
2023-01-23T02:23:08.412Z,203.60
2023-01-23T02:26:16.682Z,243.30
2023-01-23T02:29:18.324Z,195.00
2023-01-23T02:32:23.618Z,160.50
2023-01-23T02:35:29.135Z,177.90
2023-01-23T02:38:33.093Z,188.00
2023-01-23T02:41:40.932Z,150.80
2023-01-23T02:44:42.536Z,208.40
2023-01-23T02:47:44.179Z,207.00
2023-01-23T02:50:46.015Z,182.50
2023-01-23T02:56:49.850Z,123.60
2023-01-23T02:59:51.527Z,135.20
2023-01-23T03:02:53.269Z,154.40
2023-01-23T03:05:55.182Z,146.40
2023-01-23T03:08:56.998Z,161.10
2023-01-23T03:11:58.772Z,191.40
2023-01-23T03:18:01.934Z,152.20
2023-01-23T03:21:05.236Z,138.40
2023-01-23T03:24:09.147Z,175.70
2023-01-23T03:27:10.896Z,187.70
2023-01-23T03:33:14.427Z,167.00
2023-01-23T03:36:16.025Z,190.00
2023-01-23T03:39:17.638Z,203.30
2023-01-23T03:45:21.120Z,153.20
2023-01-23T03:48:22.832Z,154.90
2023-01-23T03:51:24.561Z,141.90
2023-01-23T03:57:28.024Z,164.80
2023-01-23T04:00:29.592Z,172.20
2023-01-23T04:03:31.461Z,168.90
2023-01-23T04:09:34.789Z,169.40
2023-01-23T04:12:36.337Z,150.50
2023-01-23T04:15:38.053Z,156.90
2023-01-23T04:18:39.720Z,177.60
2023-01-23T04:21:41.336Z,161.80
2023-01-23T04:24:42.896Z,200.00
2023-01-23T04:27:44.421Z,159.70
2023-01-23T04:30:46.651Z,161.20
2023-01-23T04:33:48.313Z,147.50
2023-01-23T04:36:49.979Z,146.20
2023-01-23T04:39:51.591Z,145.20
2023-01-23T04:42:53.394Z,161.70
2023-01-23T04:45:56.491Z,190.60
2023-01-23T04:48:58.143Z,179.00
2023-01-23T04:51:59.867Z,166.60
2023-01-23T04:58:03.181Z,140.90
2023-01-23T05:04:07.311Z,102.00
2023-01-23T05:07:09.502Z,106.30
2023-01-23T05:10:11.508Z,96.30
2023-01-23T05:13:13.091Z,109.10
2023-01-23T05:16:14.858Z,99.40
2023-01-23T05:22:18.083Z,103.70
2023-01-23T05:25:22.081Z,115.30
2023-01-23T05:28:23.658Z,107.20
2023-01-23T05:34:26.910Z,105.70
2023-01-23T05:37:28.478Z,113.40
2023-01-23T05:40:30.131Z,116.30
2023-01-23T05:43:31.842Z,123.10
2023-01-23T05:46:33.680Z,112.00
2023-01-23T05:52:36.866Z,127.70
2023-01-23T05:55:39.180Z,108.90
2023-01-23T05:58:41.212Z,116.10
2023-01-23T06:01:42.827Z,105.60
2023-01-23T06:04:47.476Z,111.80
2023-01-23T06:07:49.120Z,147.00
2023-01-23T06:10:51.076Z,151.30
2023-01-23T06:13:52.732Z,145.20
2023-01-23T06:19:56.015Z,185.70
2023-01-23T06:22:57.660Z,209.60
2023-01-23T06:26:00.782Z,111.40
2023-01-23T06:29:02.487Z,127.70
2023-01-23T06:35:06.803Z,126.90
2023-01-23T06:38:08.394Z,132.60
2023-01-23T06:44:11.951Z,153.20
2023-01-23T06:50:16.812Z,134.70
2023-01-23T06:53:19.086Z,130.10
2023-01-23T06:56:20.698Z,130.00
2023-01-23T06:59:22.366Z,138.60
2023-01-23T07:02:24.076Z,119.90
2023-01-23T07:08:27.341Z,104.70
2023-01-23T07:11:29.148Z,105.50
2023-01-23T07:14:30.753Z,108.40
2023-01-23T07:17:32.410Z,107.10
2023-01-23T07:20:34.110Z,112.20
2023-01-23T07:26:37.585Z,97.80
2023-01-23T07:29:39.235Z,104.40
2023-01-23T07:32:41.383Z,102.40
2023-01-23T07:35:42.995Z,100.70
2023-01-23T07:41:46.590Z,99.60
2023-01-23T07:44:48.219Z,97.80
2023-01-23T07:47:49.977Z,101.90
2023-01-23T07:50:51.689Z,97.20
2023-01-23T07:56:55.040Z,101.50
2023-01-23T07:59:56.683Z,105.70
2023-01-23T08:02:58.289Z,99.60
2023-01-23T08:09:01.605Z,118.10
2023-01-23T08:12:03.316Z,110.30
2023-01-23T08:18:07.173Z,100.40
2023-01-23T08:24:14.119Z,96.50
2023-01-23T08:27:15.742Z,105.00
2023-01-23T08:30:17.949Z,101.00
2023-01-23T08:33:20.869Z,78.60
2023-01-23T08:36:22.923Z,79.90
2023-01-23T08:39:24.653Z,68.70
2023-01-23T08:42:26.455Z,70.00
2023-01-23T08:48:29.625Z,53.70
2023-01-23T08:51:31.607Z,49.90
2023-01-23T08:54:33.576Z,51.80
2023-01-23T08:57:35.256Z,45.30
2023-01-23T09:03:38.448Z,43.40
2023-01-23T09:06:40.279Z,45.60
2023-01-23T09:09:41.953Z,46.20
2023-01-23T09:15:45.866Z,51.40
2023-01-23T09:18:47.729Z,51.30
2023-01-23T09:21:49.456Z,51.70
2023-01-23T09:27:52.726Z,52.80
2023-01-23T09:30:54.561Z,61.60
2023-01-23T09:33:56.300Z,57.60
2023-01-23T09:39:59.309Z,48.60
2023-01-23T09:43:17.677Z,48.10
2023-01-23T09:46:23.916Z,57.10
2023-01-23T09:49:44.211Z,46.20
2023-01-23T09:52:51.660Z,104.30
2023-01-23T09:56:12.696Z,145.80
2023-01-23T09:59:31.621Z,149.40
2023-01-23T10:02:34.160Z,103.80
2023-01-23T10:05:58.375Z,89.90
2023-01-23T10:09:16.019Z,66.90
2023-01-23T10:12:29.428Z,51.00
2023-01-23T10:15:59.493Z,60.90
2023-01-23T10:19:04.070Z,58.40
2023-01-23T10:22:29.304Z,58.70
2023-01-23T10:25:33.358Z,57.40
2023-01-23T10:28:37.602Z,48.20
2023-01-23T10:31:53.040Z,45.40
2023-01-23T10:35:02.261Z,48.80
2023-01-23T10:38:23.327Z,45.70
2023-01-23T10:41:25.051Z,49.80
2023-01-23T10:47:35.727Z,57.50
2023-01-23T10:50:38.545Z,55.90
2023-01-23T10:53:40.302Z,56.70
2023-01-23T11:00:01.947Z,60.10
2023-01-23T11:03:22.065Z,59.60
2023-01-23T11:06:24.343Z,59.00
2023-01-23T11:09:25.963Z,61.00
2023-01-23T11:15:32.880Z,57.30
2023-01-23T11:18:36.109Z,57.40
2023-01-23T11:21:55.042Z,59.10
2023-01-23T11:24:56.838Z,57.90
2023-01-23T11:28:12.863Z,57.80
2023-01-23T11:31:24.680Z,57.70
2023-01-23T11:34:50.457Z,59.90
2023-01-23T11:37:53.840Z,61.10
2023-01-23T11:40:55.611Z,63.70
2023-01-23T11:43:57.358Z,68.50
2023-01-23T11:50:16.394Z,64.80
2023-01-23T11:53:36.800Z,64.90
2023-01-23T11:57:08.261Z,62.70
2023-01-23T12:00:24.957Z,58.90
2023-01-23T12:03:55.665Z,64.70
2023-01-23T12:07:19.327Z,63.70
2023-01-23T12:10:26.750Z,61.30
2023-01-23T12:13:57.820Z,63.30
2023-01-23T12:17:10.467Z,68.20
2023-01-23T12:20:30.162Z,62.00
2023-01-23T12:23:42.751Z,61.70
2023-01-23T12:27:00.364Z,63.80
2023-01-23T12:30:08.004Z,66.00
2023-01-23T12:33:40.877Z,67.60
2023-01-23T12:37:31.139Z,62.80
2023-01-23T12:41:21.111Z,68.40
2023-01-23T12:44:43.489Z,66.40
2023-01-23T12:47:52.411Z,67.90
2023-01-23T12:51:02.309Z,75.20
2023-01-23T12:54:07.011Z,78.00
2023-01-23T12:57:09.917Z,81.80
2023-01-23T13:00:33.398Z,75.60
2023-01-23T13:03:46.728Z,75.70
2023-01-23T13:07:00.596Z,71.90
2023-01-23T13:10:17.636Z,67.00
2023-01-23T13:13:20.584Z,67.10
2023-01-23T13:16:31.686Z,65.50
2023-01-23T13:19:40.493Z,63.90
2023-01-23T13:22:42.304Z,64.80
2023-01-23T13:28:48.954Z,67.90
2023-01-23T13:31:50.925Z,65.70
2023-01-23T13:34:52.802Z,64.70
2023-01-23T13:37:54.306Z,68.50
2023-01-23T13:41:02.139Z,73.10
2023-01-23T13:44:05.462Z,74.40
2023-01-23T14:20:25.329Z,69.90
2023-01-23T14:23:31.035Z,77.10
2023-01-23T14:26:35.035Z,75.80
2023-01-23T14:29:36.762Z,84.00
2023-01-23T14:35:40.073Z,74.50
2023-01-23T14:38:43.700Z,73.60
2023-01-23T14:41:47.612Z,68.70
2023-01-23T14:44:50.474Z,72.20
2023-01-23T14:48:04.665Z,68.20
2023-01-23T14:51:15.102Z,73.30
2023-01-23T14:54:22.920Z,70.20
2023-01-23T14:57:26.287Z,74.70
2023-01-23T15:00:28.620Z,80.90
2023-01-23T15:03:44.978Z,86.60
2023-01-23T15:06:52.210Z,85.90
2023-01-23T15:09:53.876Z,81.20
2023-01-23T15:16:02.685Z,85.40
2023-01-23T15:19:07.643Z,78.90
2023-01-23T15:22:21.961Z,80.80
2023-01-23T15:25:31.107Z,76.40
2023-01-23T15:28:38.841Z,79.20
2023-01-23T15:31:40.620Z,77.90
2023-01-23T15:34:54.777Z,78.30
2023-01-23T15:37:56.778Z,91.90
2023-01-23T15:40:58.444Z,104.30
2023-01-23T15:47:01.506Z,104.00
2023-01-23T15:50:03.412Z,111.60
2023-01-23T15:53:11.592Z,101.40
2023-01-23T15:56:27.462Z,95.30
2023-01-23T15:59:33.561Z,93.80
2023-01-23T16:02:39.398Z,107.10
2023-01-23T16:05:46.381Z,100.60
2023-01-23T16:08:55.107Z,95.20
2023-01-23T16:12:03.112Z,88.90
2023-01-23T16:15:25.529Z,81.30
2023-01-23T16:18:27.181Z,84.90
2023-01-23T16:21:29.880Z,81.40
2023-01-23T16:24:36.518Z,95.50
2023-01-23T16:27:38.324Z,76.30
2023-01-23T16:33:41.555Z,99.70
2023-01-23T16:36:43.327Z,85.50
2023-01-23T16:39:46.540Z,87.80
2023-01-23T16:42:49.369Z,117.80
2023-01-23T16:45:51.792Z,113.70
2023-01-23T16:48:54.578Z,118.40
2023-01-23T16:55:01.695Z,108.10
2023-01-23T16:58:06.325Z,87.10
2023-01-23T17:01:18.141Z,97.80
2023-01-23T17:04:21.000Z,196.70
2023-01-23T17:07:23.127Z,203.00
2023-01-23T17:13:36.427Z,107.70
2023-01-23T17:16:38.194Z,88.30
2023-01-23T17:19:41.321Z,102.50
2023-01-23T17:22:43.792Z,101.00
2023-01-23T17:25:59.326Z,120.60
2023-01-23T17:29:02.261Z,148.80
2023-01-23T17:32:04.168Z,122.50
2023-01-23T17:35:08.488Z,115.40
2023-01-23T17:38:25.265Z,141.50
2023-01-23T17:41:27.062Z,112.50
2023-01-23T17:44:28.648Z,118.70
2023-01-23T17:47:32.119Z,144.10
2023-01-23T17:50:33.728Z,137.90
2023-01-23T17:53:35.375Z,148.70
2023-01-23T17:56:37.017Z,151.70
2023-01-23T17:59:38.632Z,113.90
2023-01-23T18:02:40.806Z,129.40
2023-01-23T18:05:42.635Z,151.30
2023-01-23T18:11:49.548Z,132.00
2023-01-23T18:14:58.177Z,145.90
2023-01-23T18:18:19.109Z,151.80
2023-01-23T18:21:21.347Z,158.70
2023-01-23T18:24:28.846Z,163.90
2023-01-23T18:27:32.638Z,132.60
2023-01-23T18:30:48.040Z,106.80
2023-01-23T18:33:55.702Z,103.20
2023-01-23T18:37:09.295Z,120.00
2023-01-23T18:40:35.672Z,93.60
2023-01-23T18:43:39.272Z,106.60
2023-01-23T18:46:41.042Z,128.20
2023-01-23T18:49:43.262Z,149.30
2023-01-23T18:53:22.996Z,149.60
2023-01-23T18:56:35.020Z,165.00
2023-01-23T19:00:09.800Z,191.90
2023-01-23T19:03:16.511Z,189.10
2023-01-23T19:06:19.519Z,185.40
2023-01-23T19:09:21.976Z,156.90
2023-01-23T19:12:54.593Z,185.60
2023-01-23T19:16:15.329Z,165.90
2023-01-23T19:19:32.948Z,128.00
2023-01-23T19:22:49.202Z,124.10
2023-01-23T19:25:50.944Z,156.10
2023-01-23T19:32:09.692Z,122.40
2023-01-23T19:35:16.338Z,116.60
2023-01-23T19:38:18.010Z,109.80
2023-01-23T19:41:24.470Z,110.70
2023-01-23T19:44:26.595Z,116.70
2023-01-23T19:47:28.740Z,128.70
2023-01-23T19:50:30.280Z,131.60
2023-01-23T19:53:31.970Z,123.60
2023-01-23T19:56:33.516Z,106.70
2023-01-23T19:59:35.298Z,134.40
2023-01-23T20:02:36.852Z,119.20
2023-01-23T20:05:38.700Z,139.80
2023-01-23T20:11:43.152Z,119.30
2023-01-23T20:14:44.937Z,137.20
2023-01-23T20:20:48.245Z,111.20
2023-01-23T20:29:53.490Z,112.10
2023-01-23T20:32:55.114Z,117.20
2023-01-23T20:35:56.934Z,127.80
2023-01-23T20:42:00.141Z,113.80
2023-01-23T20:48:06.587Z,111.90
2023-01-23T20:51:09.727Z,128.60
2023-01-23T20:54:11.607Z,139.70
2023-01-23T21:00:15.672Z,131.00
2023-01-23T21:03:17.296Z,112.30
2023-01-23T21:06:19.874Z,107.80
2023-01-23T21:09:21.523Z,107.20
2023-01-23T21:15:24.824Z,98.20
2023-01-23T21:21:28.132Z,99.20
2023-01-23T21:27:31.207Z,92.30
2023-01-23T21:30:32.863Z,94.20
2023-01-23T21:33:34.641Z,101.30
2023-01-23T21:39:39.506Z,103.50
2023-01-23T21:42:41.106Z,119.40
2023-01-23T21:45:42.658Z,129.70
2023-01-23T21:48:44.268Z,124.50
2023-01-23T21:51:45.944Z,120.70
2023-01-23T21:54:47.454Z,118.80
2023-01-23T21:57:49.894Z,113.50
2023-01-23T22:00:58.780Z,133.10
2023-01-23T22:04:04.535Z,132.50
2023-01-23T22:07:06.095Z,109.90
2023-01-23T22:13:09.587Z,112.00
2023-01-23T22:16:11.246Z,104.20
2023-01-23T22:22:18.606Z,103.00
2023-01-23T22:25:20.455Z,97.40
2023-01-23T22:28:22.877Z,97.00
2023-01-23T22:31:24.511Z,99.30
2023-01-23T22:37:29.445Z,91.20
2023-01-23T22:40:31.159Z,85.50
2023-01-23T22:46:35.049Z,92.20
2023-01-23T22:52:38.050Z,83.40
2023-01-23T22:55:39.632Z,89.40
2023-01-23T22:58:45.389Z,93.10
2023-01-23T23:01:47.038Z,88.30
2023-01-23T23:04:48.680Z,85.50
2023-01-23T23:07:50.237Z,84.40
2023-01-23T23:10:58.811Z,79.80
2023-01-23T23:14:00.374Z,82.10
2023-01-23T23:17:01.892Z,80.10
2023-01-23T23:20:03.781Z,80.70
2023-01-23T23:23:05.474Z,77.60
2023-01-23T23:29:10.881Z,81.20
2023-01-23T23:32:12.514Z,82.90
2023-01-23T23:38:16.002Z,88.70
2023-01-23T23:41:17.787Z,86.30
2023-01-23T23:47:20.888Z,87.60
2023-01-23T23:50:22.815Z,85.70
2023-01-23T23:53:24.409Z,86.20
2023-01-23T23:56:27.979Z,80.30
2023-01-23T23:59:29.841Z,82.80
